Terminal Aerodrome Forecast
Issued by NWS

Home | Current Version | Previous Version | Text Only | Print | Product List | Glossary On
Versions: 1 2 3 4 5 6 7 8 9 10 11 12 13 14 15 16 17 18 19
000
FTUS46 KPDT 270500
TAFDLS
TAF
KDLS 270535Z 2706/2806 VRB04KT P6SM BKN045 BKN200
     FM271000 VRB04KT P6SM SCT025 BKN040 OVC060
     FM271700 35005KT 6SM BR VCSH SCT025 BKN030 OVC050
     FM272100 30011G18KT 5SM -RA BR SCT020 OVC035
     FM280300 29015KT P6SM FEW030 SCT050=

USA.gov is the U.S. government's official web portal to all federal, state and local government web resources and services.